Flight Track Log - Related Links

Times and Time Zones

All times are in EDT time to prevent confusion due to time zone crossing. See the N52944 flight status page for this flight to view local times or setup timezone preferences in your user account.


Time Position Orientation Groundspeed Altitude Reporting Facility
EDT Latitude Longitude Course Direction KTS MPH feet Rate Location/Type
Sat 05:30:50 PM 33.3333 -84.5500 49° Northeast 101 116 2,500  Level Atlanta TRACON
Sat 05:31:50 PM 33.3333 -84.5167 90° East 104 120 3,100 667 Climbing Atlanta TRACON
Sat 05:32:56 PM 33.3500 -84.4833 59° Northeast 104 120 3,900 619 Climbing Atlanta TRACON
Sat 05:33:56 PM 33.3500 -84.4500 90° East 106 122 4,400 526 Climbing Atlanta TRACON
Sat 05:34:50 PM 33.3500 -84.4167 90° East 110 127 4,900 316 Climbing Atlanta TRACON
Sat 05:35:50 PM 33.3500 -84.3833 90° East 121 139 5,000 50 Climbing Atlanta TRACON
Sat 05:36:00 PM 33.5104 -84.3255 49° Northeast  Level FlightAware Approximate
Sat 05:36:50 PM 33.3500 -84.3333 90° East 131 151 5,000  Level Atlanta TRACON
Sat 05:37:56 PM 33.3500 -84.2833 90° East 130 150 5,000  Level Atlanta TRACON
Sat 05:38:56 PM 33.3500 -84.2333 90° East 136 157 5,000 150 Level Atlanta TRACON
Sat 05:39:56 PM 33.3500 -84.2000 90° East 118 136 5,300 400 Climbing Atlanta TRACON
Sat 05:40:56 PM 33.3667 -84.1667 59° Northeast 117 135 5,800 340 Climbing Atlanta TRACON
Sat 05:42:00 PM 33.3876 -84.1179 63° Northeast  Level Estimated
Sat 05:44:56 PM 33.4500 -84.0333 63° Northeast 137 158 7,000  Level Atlanta TRACON
Sat 05:45:56 PM 33.4667 -84.0000 59° Northeast 135 155 7,000  Level Atlanta TRACON
Sat 05:46:50 PM 33.5000 -83.9667 40° Northeast 135 155 7,000  Level Atlanta TRACON
Sat 05:47:56 PM 33.5167 -83.9333 59° Northeast 130 150 7,000  Level Atlanta TRACON
Sat 05:48:56 PM 33.5500 -83.9000 40° Northeast 130 150 7,000  Level Atlanta TRACON
Sat 05:49:00 PM 33.5245 -83.7974 63° Northeast  Level Estimated
Sat 05:49:56 PM 33.5667 -83.8667 59° Northeast 132 152 7,000  Level Atlanta TRACON
Sat 05:50:00 PM 33.5440 -83.7515 63° Northeast  Level Estimated
Sat 05:50:56 PM 33.5833 -83.8333 59° Northeast 134 154 7,000  Level Atlanta TRACON
Sat 05:51:50 PM 33.6167 -83.8000 40° Northeast 133 153 7,000  Level Atlanta TRACON
Sat 05:52:56 PM 33.6333 -83.7667 59° Northeast 130 150 7,000  Level Atlanta TRACON
Sat 05:53:56 PM 33.6500 -83.7333 59° Northeast 136 157 7,000  Level Atlanta TRACON
Sat 05:54:56 PM 33.6667 -83.7000 59° Northeast 131 151 7,000  Level Atlanta TRACON
Sat 05:55:50 PM 33.6833 -83.6500 68° East 132 152 7,000  Level Atlanta TRACON
Sat 05:56:50 PM 33.7000 -83.6167 59° Northeast 132 152 7,000  Level Atlanta TRACON
Sat 05:57:50 PM 33.7167 -83.5833 59° Northeast 127 146 7,000  Level Atlanta TRACON
Sat 05:58:56 PM 33.7333 -83.5333 68° East 126 145 7,000  Level Atlanta TRACON
Sat 05:59:50 PM 33.7500 -83.5000 59° Northeast 126 145 7,000  Level Atlanta TRACON
Sat 06:00:50 PM 33.7500 -83.4667 90° East 123 142 7,000  Level Atlanta TRACON
Sat 06:01:50 PM 33.7667 -83.4333 59° Northeast 123 142 7,000  Level Atlanta TRACON
Sat 06:02:50 PM 33.7833 -83.4000 59° Northeast 125 144 7,000  Level Atlanta TRACON
Sat 06:03:50 PM 33.8000 -83.3500 68° East 127 146 7,000  Level Atlanta TRACON
Sat 06:04:50 PM 33.8167 -83.3167 59° Northeast 127 146 7,000  Level Atlanta TRACON
Sat 06:05:56 PM 33.8333 -83.2833 59° Northeast 126 145 7,000  Level Atlanta TRACON
Sat 06:06:56 PM 33.8500 -83.2333 68° East 121 139 7,000  Level Atlanta TRACON
Sat 06:07:50 PM 33.8500 -83.2000 90° East 121 139 7,000  Level Atlanta TRACON
Sat 06:08:56 PM 33.8667 -83.1667 59° Northeast 123 142 7,000  Level Atlanta TRACON
Sat 06:09:56 PM 33.8847 -83.1281 61° Northeast 121 139 7,000  Level Atlanta Center
Sat 06:10:56 PM 33.8992 -83.0928 64° Northeast 121 139 7,000  Level Atlanta Center
Sat 06:11:56 PM 33.9114 -83.0575 67° East 115 132 7,000  Level Atlanta Center
Sat 06:12:56 PM 33.9278 -83.0197 62° Northeast 115 132 7,000  Level Atlanta Center
Sat 06:13:56 PM 33.9400 -82.9847 67° East 115 132 7,000  Level Atlanta Center
Sat 06:14:56 PM 33.9542 -82.9469 66° East 115 132 7,000  Level Atlanta Center
Sat 06:15:56 PM 33.9686 -82.9117 64° Northeast 115 132 7,000  Level Atlanta Center
Sat 06:16:56 PM 33.9828 -82.8739 66° East 115 132 7,000  Level Atlanta Center
Sat 06:17:56 PM 33.9950 -82.8386 67° East 115 132 7,000  Level Atlanta Center
Sat 06:18:56 PM 34.0114 -82.8008 62° Northeast 115 132 7,000  Level Atlanta Center
Sat 06:19:56 PM 34.0236 -82.7656 67° East 115 132 7,000  Level Atlanta Center
Sat 06:20:56 PM 34.0356 -82.7278 69° East 115 132 7,000  Level Atlanta Center
Sat 06:21:56 PM 34.0497 -82.6925 64° Northeast 115 132 7,000  Level Atlanta Center
Sat 06:22:56 PM 34.0642 -82.6572 64° Northeast 115 132 7,000  Level Atlanta Center
Sat 06:23:56 PM 34.0783 -82.6192 66° East 115 132 7,000  Level Atlanta Center
Sat 06:24:56 PM 34.0903 -82.5839 68° East 115 132 7,000  Level Atlanta Center
Sat 06:25:56 PM 34.1044 -82.5461 66° East 115 132 7,000  Level Atlanta Center
Sat 06:26:56 PM 34.1186 -82.5108 64° Northeast 115 132 7,000  Level Atlanta Center
Sat 06:27:56 PM 34.1308 -82.4728 69° East 115 132 7,000  Level Atlanta Center
Sat 06:28:56 PM 34.1450 -82.4375 64° Northeast 115 132 7,000  Level Atlanta Center
Sat 06:29:56 PM 34.1589 -82.3994 66° East 115 132 7,000  Level Atlanta Center
Sat 06:30:56 PM 34.1731 -82.3642 64° Northeast 115 132 7,000  Level Atlanta Center
Sat 06:31:56 PM 34.1853 -82.3286 67° East 115 132 7,000 -101 Level Atlanta Center
Sat 06:33:00 PM 34.1957 -82.2858 64° Northeast  Level FlightAware Approximate
Sat 06:40:00 PM 34.3255 -82.0530 47° Northeast  Level FlightAware Approximate
Sat 06:41:00 PM 34.3485 -82.0235 47° Northeast  Level FlightAware Approximate
Sat 06:42:00 PM 34.3715 -81.9939 47° Northeast  Level FlightAware Approximate
Sat 06:43:00 PM 34.3945 -81.9643 47° Northeast  Level FlightAware Approximate
Sat 06:44:00 PM 34.4175 -81.9346 47° Northeast  Level FlightAware Approximate
Sat 06:45:00 PM 34.4404 -81.9050 47° Northeast  Level FlightAware Approximate
Sat 06:46:00 PM 34.4634 -81.8753 47° Northeast  Level FlightAware Approximate
Sat 06:47:00 PM 34.4864 -81.8456 47° Northeast  Level FlightAware Approximate
Sat 06:48:00 PM 34.5093 -81.8160 47° Northeast  Level FlightAware Approximate
Sat 06:49:00 PM 34.5322 -81.7862 47° Northeast  Level FlightAware Approximate
Sat 06:50:00 PM 34.5552 -81.7565 47° Northeast  Level FlightAware Approximate
Sat 06:51:00 PM 34.5781 -81.7268 47° Northeast  Level FlightAware Approximate
Sat 06:51:46 PM 34.6189 -81.6814 51° Northeast 123 142 4,900  Level Atlanta Center
Sat 06:52:00 PM 34.6010 -81.6970 47° Northeast  Level FlightAware Approximate
Sat 06:52:35 PM 34.6206 -81.6511 86° East 126 145 4,900  Level Atlanta Center
Sat 06:53:00 PM 34.6239 -81.6672 47° Northeast  Level FlightAware Approximate
Sat 06:53:36 PM 34.6258 -81.6106 81° East 118 136 4,900  Level Atlanta Center
Sat 06:54:00 PM 34.6468 -81.6375 47° Northeast  Level FlightAware Approximate
Sat 06:54:31 PM 34.6314 -81.5700 81° East 125 144 4,600  Level Atlanta Center
Sat 06:55:00 PM 34.6682 -81.6060 51° Northeast  Level FlightAware Approximate
Sat 06:55:38 PM 34.6367 -81.5217 82° East 139 160 4,000  Level Atlanta Center
Sat 06:56:00 PM 34.6893 -81.5744 51° Northeast  Level FlightAware Approximate
Sat 06:56:39 PM 34.6419 -81.4786 82° East 127 146 4,000  Level Atlanta Center
Sat 06:57:40 PM 34.6494 -81.4356 78° East 117 135 3,900 -49 Descending Atlanta Center
Sat 06:58:41 PM 34.6547 -81.3950 81° East 118 136 3,900  Level Atlanta Center
Sat 06:59:48 PM 34.6603 -81.3569 80° East 115 132 3,900  Level Atlanta Center
Sat 07:00:49 PM 34.6636 -81.3139 85° East 117 135 3,900  Level Atlanta Center
Sat 07:01:50 PM 34.6711 -81.2758 77° East 117 135 3,900  Level Atlanta Center
Sat 07:02:51 PM 34.6744 -81.2378 84° East 114 131 3,900  Level Atlanta Center
Sat 07:03:52 PM 34.6775 -81.1972 85° East 117 135 3,900 -246 Level Atlanta Center
Sat 07:04:53 PM 34.6850 -81.1539 78° East 127 146 3,400 -496 Descending Atlanta Center
Sat 07:05:53 PM 34.6922 -81.1083 79° East 137 158 2,900 -298 Descending Atlanta Center
Sat 07:06:54 PM 34.6953 -81.0653 85° East 127 146 2,800 -197 Descending Atlanta Center
Sat 07:07:55 PM 34.7028 -81.0244 77° East 122 140 2,500 -197 Descending Atlanta Center
Sat 07:08:56 PM 34.7144 -80.9889 68° East 118 136 2,400 -98 Descending Atlanta Center

Login

Don't have an account? Register now (free) for customized features, flight alerts, and more!